Jayton, Texas
Current Conditions -  °F | °C
As of 12:55 AM on Thursday 23 Oct 2014 (Local Time) from KSNK Reporting Station
Scattered Clouds Scattered Clouds  
Wind Chill: 58°   Ceiling: Unl
Heat Index: 58°   Visibility: 10mi
Dew Point: 55°   Wind: 3mph
Humidity: 92%   Direction: 200°SSW
Pressure: 30.14"   Gusts: NA
Location:  33.25°N, 100.57°W
Report Text: KSNK 230555Z AUTO 20003KT 10SM SCT036 14/13 A3014 RMK AO2 T01420130
Loading
Personal Weather Stations






























Interactive Weather Map
Tropical Storm Tracking
New forecast layout! Learn more

10-Day Weather Forecast

Advertisements
Track Severe Weather on mobile